createdAt,value
2023-03-17T00:00:28.216Z,55.72
2023-03-17T00:02:51.594Z,55.67
2023-03-17T00:04:55.318Z,56.13
2023-03-17T00:06:59.736Z,56.12
2023-03-17T00:09:03.591Z,55.81
2023-03-17T00:11:16.098Z,56.26
2023-03-17T00:13:19.044Z,56.80
2023-03-17T00:15:26.758Z,56.59
2023-03-17T00:17:31.147Z,55.73
2023-03-17T00:19:35.312Z,56.12
2023-03-17T00:21:38.029Z,56.44
2023-03-17T00:23:43.527Z,56.33
2023-03-17T00:25:47.114Z,55.92
2023-03-17T00:27:50.370Z,55.90
2023-03-17T00:29:53.169Z,55.62
2023-03-17T00:31:57.685Z,56.04
2023-03-17T00:34:01.174Z,56.18
2023-03-17T00:36:07.457Z,56.17
2023-03-17T00:38:14.774Z,56.63
2023-03-17T00:40:24.758Z,56.22
2023-03-17T00:42:28.117Z,56.12
2023-03-17T00:44:30.820Z,55.83
2023-03-17T00:46:37.963Z,56.41
2023-03-17T00:48:41.830Z,57.19
2023-03-17T00:50:49.705Z,57.46
2023-03-17T00:52:54.536Z,57.45
2023-03-17T00:54:57.737Z,56.46
2023-03-17T00:57:00.615Z,56.18
2023-03-17T00:59:03.733Z,56.22
2023-03-17T01:01:06.345Z,56.14
2023-03-17T01:03:12.387Z,56.53
2023-03-17T01:05:16.035Z,57.15
2023-03-17T01:07:18.604Z,57.09
2023-03-17T01:09:26.678Z,57.30
2023-03-17T01:11:31.200Z,57.82
2023-03-17T01:13:34.905Z,57.71
2023-03-17T01:15:44.962Z,58.08
2023-03-17T01:17:52.294Z,57.70
2023-03-17T01:19:55.222Z,57.16
2023-03-17T01:21:57.894Z,57.30
2023-03-17T01:24:02.831Z,57.41
2023-03-17T01:26:06.505Z,57.48
2023-03-17T01:28:15.920Z,58.00
2023-03-17T01:30:31.456Z,58.22
2023-03-17T01:32:34.529Z,58.87
2023-03-17T01:34:37.246Z,58.99
2023-03-17T01:36:41.515Z,58.93
2023-03-17T01:38:48.256Z,58.50
2023-03-17T01:40:52.000Z,58.29
2023-03-17T01:43:02.266Z,57.98
2023-03-17T01:45:29.417Z,57.68
2023-03-17T01:47:32.176Z,57.80
2023-03-17T01:49:38.163Z,58.19
2023-03-17T01:51:55.589Z,57.90
2023-03-17T01:54:01.542Z,57.60
2023-03-17T01:56:06.565Z,57.80
2023-03-17T01:58:10.038Z,58.10
2023-03-17T02:00:17.973Z,58.56
2023-03-17T02:02:26.035Z,59.01
2023-03-17T02:04:29.841Z,59.07
2023-03-17T02:06:34.351Z,58.58
2023-03-17T02:08:37.089Z,58.52
2023-03-17T02:10:42.065Z,58.47
2023-03-17T02:12:48.405Z,59.07
2023-03-17T02:14:52.234Z,58.99
2023-03-17T02:16:56.208Z,58.89
2023-03-17T02:18:58.929Z,58.49
2023-03-17T02:21:32.650Z,58.64
2023-03-17T02:23:35.758Z,58.32
2023-03-17T02:25:40.010Z,58.20
2023-03-17T02:27:46.566Z,57.53
2023-03-17T02:29:49.124Z,57.35
2023-03-17T02:31:52.117Z,57.17
2023-03-17T02:33:54.788Z,57.64
2023-03-17T02:35:57.538Z,58.01
2023-03-17T02:38:01.550Z,57.56
2023-03-17T02:40:07.733Z,57.55
2023-03-17T02:42:13.078Z,58.05
2023-03-17T02:44:16.533Z,58.15
2023-03-17T02:46:19.432Z,58.22
2023-03-17T02:48:22.957Z,58.13
2023-03-17T02:50:28.737Z,57.95
2023-03-17T02:52:32.200Z,58.06
2023-03-17T02:54:35.236Z,58.22
2023-03-17T02:56:38.237Z,58.45
2023-03-17T02:58:40.895Z,58.28
2023-03-17T03:00:43.610Z,58.82
2023-03-17T03:02:46.704Z,58.50
2023-03-17T03:04:50.374Z,58.19
2023-03-17T03:06:53.852Z,57.98
2023-03-17T03:08:57.117Z,58.18
2023-03-17T03:11:02.356Z,58.61
2023-03-17T03:13:07.594Z,59.33
2023-03-17T03:15:10.957Z,59.37
2023-03-17T03:17:16.084Z,59.21
2023-03-17T03:19:19.337Z,58.82
2023-03-17T03:21:22.331Z,58.84
2023-03-17T03:23:25.096Z,58.70
2023-03-17T03:25:28.143Z,58.65
2023-03-17T03:27:32.264Z,58.40
2023-03-17T03:29:35.549Z,58.63
2023-03-17T03:31:38.314Z,58.90
2023-03-17T03:33:41.844Z,58.85
2023-03-17T03:35:44.750Z,58.86
2023-03-17T03:37:47.503Z,58.42
2023-03-17T03:39:50.082Z,58.81
2023-03-17T03:41:55.607Z,58.66
2023-03-17T03:43:59.192Z,58.15
2023-03-17T03:46:02.668Z,58.26
2023-03-17T03:48:06.223Z,58.36
2023-03-17T03:50:10.719Z,58.78
2023-03-17T03:52:13.611Z,58.91
2023-03-17T03:54:16.378Z,58.92
2023-03-17T03:56:19.387Z,58.52
2023-03-17T03:58:22.350Z,58.09
2023-03-17T04:00:27.145Z,57.83
2023-03-17T04:02:30.910Z,58.19
2023-03-17T04:04:34.951Z,58.51
2023-03-17T04:06:40.146Z,58.56
2023-03-17T04:08:43.628Z,58.38
2023-03-17T04:10:47.534Z,58.49
2023-03-17T04:12:50.288Z,58.74
2023-03-17T04:14:52.932Z,58.58
2023-03-17T04:16:56.241Z,58.74
2023-03-17T04:18:59.359Z,58.25
2023-03-17T04:21:02.133Z,57.96
2023-03-17T04:23:05.916Z,57.90
2023-03-17T04:25:11.464Z,58.24
2023-03-17T04:27:15.558Z,58.58
2023-03-17T04:29:19.147Z,58.96
2023-03-17T04:31:21.965Z,58.50
2023-03-17T04:33:24.646Z,57.99
2023-03-17T04:35:27.287Z,57.79
2023-03-17T04:37:29.890Z,58.10
2023-03-17T04:39:35.215Z,58.68
2023-03-17T04:41:44.490Z,58.44
2023-03-17T04:43:47.802Z,58.63
2023-03-17T04:45:50.860Z,58.29
2023-03-17T04:47:53.581Z,58.24
2023-03-17T04:49:59.136Z,58.77
2023-03-17T04:52:05.738Z,58.76
2023-03-17T04:54:09.644Z,58.67
2023-03-17T04:56:12.597Z,59.03
2023-03-17T04:58:29.574Z,58.82
2023-03-17T05:00:38.622Z,57.98
2023-03-17T05:02:41.850Z,57.84
2023-03-17T05:04:46.145Z,57.94
2023-03-17T05:06:48.833Z,58.11
2023-03-17T05:08:51.512Z,58.60
2023-03-17T05:10:56.038Z,58.22
2023-03-17T05:12:58.680Z,58.00
2023-03-17T05:15:01.248Z,58.05
2023-03-17T05:17:04.029Z,58.21
2023-03-17T05:19:06.894Z,57.85
2023-03-17T05:21:10.565Z,57.84
2023-03-17T05:23:14.095Z,57.77
2023-03-17T05:25:16.955Z,57.44
2023-03-17T05:27:19.660Z,57.43
2023-03-17T05:29:22.408Z,57.50
2023-03-17T05:31:25.960Z,57.79
2023-03-17T05:33:29.653Z,57.62
2023-03-17T05:35:32.649Z,57.88
2023-03-17T05:37:35.587Z,57.42
2023-03-17T05:39:38.911Z,57.78
2023-03-17T05:41:42.408Z,57.50
2023-03-17T05:43:45.357Z,57.91
2023-03-17T05:45:50.719Z,57.58
2023-03-17T05:47:54.907Z,57.38
2023-03-17T05:49:57.663Z,57.66
2023-03-17T05:52:00.540Z,57.69
2023-03-17T05:54:03.461Z,57.83
2023-03-17T05:56:06.552Z,57.33
2023-03-17T05:58:09.688Z,57.63
2023-03-17T06:00:14.105Z,57.38
2023-03-17T06:02:17.491Z,57.30
2023-03-17T06:04:20.418Z,57.16
2023-03-17T06:06:24.791Z,57.10
2023-03-17T06:08:27.623Z,56.96
2023-03-17T06:10:30.715Z,57.00
2023-03-17T06:12:34.641Z,56.63
2023-03-17T06:14:37.690Z,56.65
2023-03-17T06:16:40.777Z,56.67
2023-03-17T06:18:44.586Z,56.36
2023-03-17T06:20:47.555Z,56.43
2023-03-17T06:23:03.444Z,56.88
2023-03-17T06:25:08.370Z,57.38
2023-03-17T06:27:11.466Z,57.38
2023-03-17T06:29:14.013Z,57.15
2023-03-17T06:31:17.868Z,56.82
2023-03-17T06:33:20.990Z,56.80
2023-03-17T06:35:24.779Z,56.74
2023-03-17T06:37:29.735Z,56.56
2023-03-17T06:39:32.631Z,56.50
2023-03-17T06:41:36.005Z,56.58
2023-03-17T06:43:38.584Z,56.63
2023-03-17T06:45:41.998Z,56.89
2023-03-17T06:47:44.968Z,56.57
2023-03-17T06:49:47.785Z,56.25
2023-03-17T06:51:50.392Z,56.46
2023-03-17T06:53:53.036Z,56.52
2023-03-17T06:55:56.257Z,56.88
2023-03-17T06:57:59.075Z,56.60
2023-03-17T07:00:02.040Z,56.45
2023-03-17T07:02:05.410Z,56.52
2023-03-17T07:04:08.185Z,56.04
2023-03-17T07:06:11.040Z,56.21
2023-03-17T07:08:14.260Z,56.28
2023-03-17T07:10:18.118Z,56.33
2023-03-17T07:12:21.928Z,55.97
2023-03-17T07:14:25.701Z,56.04
2023-03-17T07:16:30.297Z,55.81
2023-03-17T07:18:33.805Z,55.63
2023-03-17T07:20:36.963Z,55.45
2023-03-17T07:22:41.485Z,55.20
2023-03-17T07:24:49.402Z,55.25
2023-03-17T07:26:52.667Z,55.41
2023-03-17T07:28:56.175Z,55.25
2023-03-17T07:31:00.438Z,54.84
2023-03-17T07:33:04.152Z,54.52
2023-03-17T07:35:08.039Z,54.34
2023-03-17T07:37:12.086Z,54.26
2023-03-17T07:39:15.604Z,53.93
2023-03-17T07:41:18.357Z,53.44
2023-03-17T07:43:21.042Z,53.49
2023-03-17T07:45:24.963Z,53.20
2023-03-17T07:47:28.001Z,52.38
2023-03-17T07:49:41.346Z,52.41
2023-03-17T07:51:44.585Z,51.99
2023-03-17T07:53:50.002Z,51.99
2023-03-17T07:55:52.870Z,52.11
2023-03-17T07:57:55.661Z,52.09
2023-03-17T07:59:58.921Z,52.07
2023-03-17T08:02:02.122Z,51.59
2023-03-17T08:04:05.509Z,51.58
2023-03-17T08:06:08.769Z,50.83
2023-03-17T08:08:12.621Z,50.69
2023-03-17T08:10:18.241Z,51.06
2023-03-17T08:12:21.735Z,50.82
2023-03-17T08:14:25.311Z,50.73
2023-03-17T08:16:30.128Z,50.82
2023-03-17T08:18:33.071Z,51.05
2023-03-17T08:20:36.529Z,51.08
2023-03-17T08:22:39.411Z,50.79
2023-03-17T08:24:43.251Z,50.83
2023-03-17T08:26:49.410Z,50.69
2023-03-17T08:28:52.615Z,50.59
2023-03-17T08:31:05.611Z,50.43
2023-03-17T08:33:09.335Z,50.09
2023-03-17T08:35:20.473Z,50.00
2023-03-17T08:37:24.989Z,49.91
2023-03-17T08:39:27.706Z,49.84
2023-03-17T08:41:30.915Z,49.55
2023-03-17T08:43:37.222Z,49.81
2023-03-17T08:45:41.602Z,49.20
2023-03-17T08:47:46.728Z,48.89
2023-03-17T08:49:50.387Z,49.23
2023-03-17T08:51:53.342Z,49.12
2023-03-17T08:53:57.270Z,48.69
2023-03-17T08:55:59.927Z,48.48
2023-03-17T08:58:05.229Z,48.62
2023-03-17T09:00:11.103Z,49.02
2023-03-17T09:02:15.197Z,48.73
2023-03-17T09:04:18.199Z,48.96
2023-03-17T09:06:22.154Z,49.25
2023-03-17T09:08:27.678Z,49.77
2023-03-17T09:10:34.046Z,49.92
2023-03-17T09:12:38.342Z,50.38
2023-03-17T09:14:44.501Z,50.25
2023-03-17T09:16:49.645Z,49.98
2023-03-17T09:18:52.824Z,49.93
2023-03-17T09:20:58.137Z,50.19
2023-03-17T09:23:08.019Z,50.33
2023-03-17T09:25:11.072Z,49.55
2023-03-17T09:27:14.054Z,49.20
2023-03-17T09:29:16.806Z,50.23
2023-03-17T09:31:19.593Z,49.97
2023-03-17T09:33:23.801Z,49.27
2023-03-17T09:35:30.242Z,49.26
2023-03-17T09:37:37.232Z,50.13
2023-03-17T09:39:40.187Z,50.82
2023-03-17T09:42:12.301Z,50.44
2023-03-17T09:44:30.278Z,49.15
2023-03-17T09:47:07.235Z,48.73
2023-03-17T09:49:28.809Z,49.67
2023-03-17T09:51:32.443Z,50.10
2023-03-17T09:53:54.378Z,50.54
2023-03-17T09:55:58.837Z,50.53
2023-03-17T09:58:03.422Z,49.26
2023-03-17T10:00:19.084Z,49.26
2023-03-17T10:02:31.773Z,49.18
2023-03-17T10:04:37.036Z,49.16
2023-03-17T10:06:44.847Z,49.00
2023-03-17T10:08:57.018Z,49.14
2023-03-17T10:11:16.183Z,49.27
2023-03-17T10:13:42.896Z,49.83
2023-03-17T10:16:18.882Z,49.13
2023-03-17T10:18:27.168Z,48.94
2023-03-17T10:20:37.936Z,49.69
2023-03-17T10:22:48.772Z,48.91
2023-03-17T10:24:57.600Z,48.71
2023-03-17T10:27:06.426Z,48.82
2023-03-17T10:29:15.787Z,48.99
2023-03-17T10:31:28.780Z,48.66
2023-03-17T10:33:32.685Z,48.67
2023-03-17T10:35:39.537Z,48.88
2023-03-17T10:37:44.212Z,48.25
2023-03-17T10:39:51.179Z,48.74
2023-03-17T10:42:01.425Z,48.67
2023-03-17T10:44:20.477Z,48.61
2023-03-17T10:46:25.734Z,48.63
2023-03-17T10:48:30.347Z,48.54
2023-03-17T10:50:36.754Z,49.56
2023-03-17T10:52:41.106Z,49.95
2023-03-17T10:54:49.198Z,48.76
2023-03-17T10:57:08.169Z,47.90
2023-03-17T10:59:33.059Z,46.73
2023-03-17T11:01:41.458Z,45.54
2023-03-17T11:03:44.724Z,45.87
2023-03-17T11:06:02.416Z,45.72
2023-03-17T11:08:15.211Z,45.46
2023-03-17T11:10:24.653Z,45.08
2023-03-17T11:12:34.098Z,44.78
2023-03-17T11:14:37.322Z,45.35
2023-03-17T11:17:06.886Z,45.09
2023-03-17T11:19:15.487Z,45.61
2023-03-17T11:21:30.834Z,45.46
2023-03-17T11:23:42.675Z,45.36
2023-03-17T11:25:55.805Z,46.37
2023-03-17T11:28:19.761Z,47.33
2023-03-17T11:30:35.355Z,45.97
2023-03-17T11:32:51.444Z,44.55
2023-03-17T11:35:12.892Z,44.15
2023-03-17T11:38:04.419Z,44.33
2023-03-17T11:40:21.895Z,44.37
2023-03-17T11:42:37.062Z,44.58
2023-03-17T11:44:52.308Z,44.65
2023-03-17T11:47:21.341Z,44.93
2023-03-17T11:49:38.627Z,44.35
2023-03-17T11:51:47.125Z,43.74
2023-03-17T11:54:02.942Z,43.16
2023-03-17T11:56:28.003Z,43.51
2023-03-17T11:58:40.112Z,44.07
2023-03-17T12:00:50.875Z,44.01
2023-03-17T12:03:00.507Z,44.40
2023-03-17T12:05:11.487Z,44.09
2023-03-17T12:07:39.143Z,43.71
2023-03-17T12:09:48.761Z,43.03
2023-03-17T12:11:53.514Z,43.65
2023-03-17T12:14:06.534Z,44.49
2023-03-17T12:16:17.634Z,44.77
2023-03-17T12:18:43.090Z,43.48
2023-03-17T12:21:06.415Z,42.98
2023-03-17T12:23:30.044Z,42.60
2023-03-17T12:25:40.957Z,42.53
2023-03-17T12:28:11.022Z,43.68
2023-03-17T12:30:46.004Z,43.21
2023-03-17T12:33:00.195Z,43.08
2023-03-17T12:35:22.376Z,44.04
2023-03-17T12:37:28.180Z,42.88
2023-03-17T12:39:33.841Z,43.92
2023-03-17T12:41:59.651Z,44.00
2023-03-17T12:44:31.679Z,44.53
2023-03-17T12:47:00.393Z,44.79
2023-03-17T12:49:27.013Z,44.13
2023-03-17T12:51:53.649Z,43.38
2023-03-17T12:53:59.513Z,43.28
2023-03-17T12:56:24.700Z,44.27
2023-03-17T12:58:35.677Z,44.46
2023-03-17T13:00:50.764Z,43.96
2023-03-17T13:03:13.456Z,42.96
2023-03-17T13:05:19.601Z,43.10
2023-03-17T13:07:27.009Z,42.66
2023-03-17T13:09:43.014Z,42.86
2023-03-17T13:11:47.618Z,42.50
2023-03-17T13:14:41.839Z,43.10
2023-03-17T13:16:47.475Z,42.98
2023-03-17T13:18:50.434Z,42.90
2023-03-17T13:20:56.455Z,42.68
2023-03-17T13:23:13.634Z,42.33
2023-03-17T13:25:33.933Z,42.41
2023-03-17T13:27:39.819Z,42.19
2023-03-17T13:29:46.121Z,42.18
2023-03-17T13:31:50.192Z,42.57
2023-03-17T13:33:56.778Z,42.58
2023-03-17T13:36:17.522Z,42.79
2023-03-17T13:39:15.114Z,42.13
2023-03-17T13:41:34.517Z,43.17
2023-03-17T13:43:46.600Z,43.67
2023-03-17T13:45:49.775Z,44.08
2023-03-17T13:47:54.501Z,44.39
2023-03-17T13:50:16.258Z,44.11
2023-03-17T13:52:28.497Z,43.56
2023-03-17T13:54:35.030Z,43.43
2023-03-17T13:56:40.955Z,43.40
2023-03-17T13:58:50.187Z,43.31
2023-03-17T14:00:59.758Z,43.01
2023-03-17T14:03:12.156Z,43.62
2023-03-17T14:05:25.861Z,42.52
2023-03-17T14:07:41.217Z,42.78
2023-03-17T14:09:44.539Z,43.20
2023-03-17T14:11:48.352Z,42.77
2023-03-17T14:14:11.858Z,43.27
2023-03-17T14:16:28.330Z,43.08
2023-03-17T14:18:39.181Z,42.47
2023-03-17T14:20:54.059Z,41.72
2023-03-17T14:23:00.470Z,42.09
2023-03-17T14:25:03.785Z,41.88
2023-03-17T14:27:10.391Z,42.51
2023-03-17T14:29:16.135Z,43.51
2023-03-17T14:31:24.953Z,42.95
2023-03-17T14:33:34.529Z,42.32
2023-03-17T14:35:42.125Z,42.17
2023-03-17T14:37:45.649Z,42.22
2023-03-17T14:39:52.609Z,41.61
2023-03-17T14:42:00.550Z,41.74
2023-03-17T14:44:03.482Z,41.37
2023-03-17T14:46:13.295Z,41.61
2023-03-17T14:48:21.235Z,41.80
2023-03-17T14:50:32.842Z,41.76
2023-03-17T14:52:37.220Z,41.96
2023-03-17T14:54:40.019Z,42.15
2023-03-17T14:56:47.108Z,41.95
2023-03-17T14:58:54.185Z,42.33
2023-03-17T15:01:07.661Z,42.46
2023-03-17T15:03:20.362Z,42.41
2023-03-17T15:05:45.663Z,42.53
2023-03-17T15:07:48.605Z,42.58
2023-03-17T15:09:59.781Z,42.93
2023-03-17T15:12:16.156Z,43.54
2023-03-17T15:14:29.743Z,43.58
2023-03-17T15:16:35.783Z,44.12
2023-03-17T15:18:38.725Z,43.99
2023-03-17T15:20:44.984Z,43.73
2023-03-17T15:22:55.574Z,43.87
2023-03-17T15:25:04.599Z,43.64
2023-03-17T15:27:18.017Z,43.73
2023-03-17T15:29:20.832Z,43.76
2023-03-17T15:31:28.482Z,43.43
2023-03-17T15:33:37.019Z,43.24
2023-03-17T15:35:39.768Z,42.86
2023-03-17T15:37:42.638Z,43.06
2023-03-17T15:39:46.933Z,43.35
2023-03-17T15:41:52.914Z,43.29
2023-03-17T15:43:57.700Z,43.06
2023-03-17T15:46:07.362Z,43.19
2023-03-17T15:48:23.561Z,43.63
2023-03-17T15:50:30.246Z,42.92
2023-03-17T15:52:34.342Z,43.61
2023-03-17T15:54:36.934Z,43.04
2023-03-17T15:56:39.796Z,43.32
2023-03-17T15:58:42.969Z,43.06
2023-03-17T16:00:52.132Z,42.83
2023-03-17T16:03:01.013Z,42.89
2023-03-17T16:05:15.714Z,42.90
2023-03-17T16:07:21.340Z,42.74
2023-03-17T16:09:23.962Z,42.95
2023-03-17T16:11:30.586Z,43.04
2023-03-17T16:13:33.666Z,43.14
2023-03-17T16:15:40.966Z,43.02
2023-03-17T16:17:45.879Z,43.49
2023-03-17T16:19:50.178Z,43.46
2023-03-17T16:21:56.150Z,43.47
2023-03-17T16:24:00.992Z,44.09
2023-03-17T16:26:14.945Z,43.86
2023-03-17T16:28:27.701Z,43.43
2023-03-17T16:30:33.841Z,43.46
2023-03-17T16:32:36.743Z,43.87
2023-03-17T16:34:39.394Z,43.30
2023-03-17T16:36:44.050Z,43.50
2023-03-17T16:38:47.682Z,43.58
2023-03-17T16:40:52.786Z,43.17
2023-03-17T16:42:57.187Z,43.31
2023-03-17T16:45:03.062Z,42.90
2023-03-17T16:47:09.169Z,43.08
2023-03-17T16:49:19.536Z,43.26
2023-03-17T16:51:24.920Z,43.13
2023-03-17T16:53:27.949Z,42.63
2023-03-17T16:55:31.182Z,42.42
2023-03-17T16:57:34.462Z,42.41
2023-03-17T16:59:37.991Z,42.14
2023-03-17T17:01:41.003Z,42.14
2023-03-17T17:03:45.959Z,42.20
2023-03-17T17:05:49.885Z,42.22
2023-03-17T17:07:56.162Z,42.07
2023-03-17T17:09:59.861Z,42.08
2023-03-17T17:12:04.494Z,42.01
2023-03-17T17:14:07.431Z,42.07
2023-03-17T17:16:16.879Z,41.94
2023-03-17T17:18:23.246Z,41.78
2023-03-17T17:20:30.937Z,41.71
2023-03-17T17:22:33.760Z,41.78
2023-03-17T17:24:36.364Z,41.82
2023-03-17T17:26:39.592Z,41.78
2023-03-17T17:28:42.780Z,41.47
2023-03-17T17:30:47.989Z,41.35
2023-03-17T17:32:51.685Z,41.42
2023-03-17T17:34:54.628Z,41.37
2023-03-17T17:36:58.164Z,41.45
2023-03-17T17:39:02.077Z,41.34
2023-03-17T17:41:08.974Z,41.69
2023-03-17T17:43:12.283Z,41.75
2023-03-17T17:45:16.734Z,41.55
2023-03-17T17:47:21.778Z,41.72
2023-03-17T17:49:25.501Z,42.10
2023-03-17T17:51:29.800Z,42.15
2023-03-17T17:53:33.727Z,42.40
2023-03-17T17:55:44.190Z,42.51
2023-03-17T17:57:47.775Z,42.59
2023-03-17T17:59:51.446Z,42.94
2023-03-17T18:01:55.330Z,42.90
2023-03-17T18:03:58.601Z,42.82
2023-03-17T18:06:05.787Z,42.96
2023-03-17T18:08:14.264Z,43.11
2023-03-17T18:10:22.534Z,42.90
2023-03-17T18:12:28.153Z,42.70
2023-03-17T18:14:31.687Z,42.76
2023-03-17T18:16:36.356Z,42.45
2023-03-17T18:18:42.338Z,42.19
2023-03-17T18:20:46.081Z,41.97
2023-03-17T18:22:53.999Z,42.00
2023-03-17T18:24:57.488Z,41.62
2023-03-17T18:27:00.825Z,42.14
2023-03-17T18:29:04.505Z,42.60
2023-03-17T18:31:16.620Z,42.27
2023-03-17T18:33:21.554Z,42.26
2023-03-17T18:35:27.101Z,42.56
2023-03-17T18:37:32.506Z,42.74
2023-03-17T18:39:40.932Z,42.36
2023-03-17T18:41:44.993Z,42.29
2023-03-17T18:43:47.597Z,41.94
2023-03-17T18:45:51.235Z,41.65
2023-03-17T18:47:54.560Z,41.96
2023-03-17T18:49:59.572Z,42.04
2023-03-17T18:52:03.676Z,42.37
2023-03-17T18:54:08.631Z,42.16
2023-03-17T18:56:13.431Z,42.13
2023-03-17T18:58:17.086Z,42.13
2023-03-17T19:00:20.798Z,42.05
2023-03-17T19:02:24.502Z,41.99
2023-03-17T19:04:28.925Z,41.77
2023-03-17T19:06:33.356Z,42.06
2023-03-17T19:08:37.315Z,41.94
2023-03-17T19:10:44.957Z,42.01
2023-03-17T19:12:50.690Z,42.01
2023-03-17T19:14:53.500Z,41.73
2023-03-17T19:16:57.523Z,41.99
2023-03-17T19:19:00.837Z,41.90
2023-03-17T19:21:03.979Z,41.70
2023-03-17T19:23:08.002Z,41.68
2023-03-17T19:25:12.006Z,41.67
2023-03-17T19:27:15.070Z,41.61
2023-03-17T19:29:19.069Z,41.63
2023-03-17T19:31:24.724Z,41.45
2023-03-17T19:33:28.984Z,41.62
2023-03-17T19:35:32.635Z,41.99
2023-03-17T19:37:38.124Z,42.15
2023-03-17T19:39:46.204Z,42.75
2023-03-17T19:41:53.330Z,43.02
2023-03-17T19:43:57.251Z,43.07
2023-03-17T19:46:02.109Z,43.25
2023-03-17T19:48:08.121Z,43.71
2023-03-17T19:50:11.632Z,43.65
2023-03-17T19:52:15.390Z,43.93
2023-03-17T19:54:23.439Z,43.71
2023-03-17T19:56:28.031Z,43.78
2023-03-17T19:58:30.792Z,44.14
2023-03-17T20:00:36.235Z,44.62
2023-03-17T20:02:39.152Z,44.62
2023-03-17T20:04:44.859Z,44.69
2023-03-17T20:06:47.920Z,44.81
2023-03-17T20:08:51.890Z,45.13
2023-03-17T20:10:55.996Z,45.27
2023-03-17T20:13:03.037Z,45.36
2023-03-17T20:15:12.472Z,45.55
2023-03-17T20:17:18.935Z,45.88
2023-03-17T20:19:22.534Z,46.03
2023-03-17T20:21:25.954Z,46.11
2023-03-17T20:23:31.437Z,45.94
2023-03-17T20:25:37.479Z,45.95
2023-03-17T20:27:43.160Z,46.42
2023-03-17T20:29:51.684Z,46.41
2023-03-17T20:31:56.246Z,46.74
2023-03-17T20:34:00.190Z,46.65
2023-03-17T20:36:04.995Z,46.95
2023-03-17T20:38:10.262Z,46.84
2023-03-17T20:40:13.977Z,46.70
2023-03-17T20:42:20.137Z,46.75
2023-03-17T20:44:27.015Z,47.29
2023-03-17T20:46:30.123Z,47.11
2023-03-17T20:48:34.609Z,47.34
2023-03-17T20:50:39.157Z,47.13
2023-03-17T20:52:43.124Z,47.31
2023-03-17T20:54:46.050Z,47.47
2023-03-17T20:56:53.627Z,47.54
2023-03-17T20:58:58.369Z,47.51
2023-03-17T21:01:01.846Z,47.54
2023-03-17T21:03:07.210Z,47.88
2023-03-17T21:05:17.954Z,47.86
2023-03-17T21:07:21.801Z,47.89
2023-03-17T21:09:25.241Z,48.33
2023-03-17T21:11:29.236Z,48.51
2023-03-17T21:13:34.888Z,48.38
2023-03-17T21:15:45.589Z,48.57
2023-03-17T21:17:49.352Z,48.67
2023-03-17T21:19:54.641Z,48.66
2023-03-17T21:21:59.104Z,48.72
2023-03-17T21:24:05.373Z,49.02
2023-03-17T21:26:14.989Z,49.01
2023-03-17T21:28:23.046Z,49.08
2023-03-17T21:30:26.612Z,49.15
2023-03-17T21:32:29.675Z,49.66
2023-03-17T21:34:32.985Z,50.03
2023-03-17T21:36:36.386Z,50.23
2023-03-17T21:38:40.157Z,50.23
2023-03-17T21:40:43.449Z,50.36
2023-03-17T21:42:46.661Z,50.37
2023-03-17T21:44:52.304Z,50.53
2023-03-17T21:46:56.483Z,50.57
2023-03-17T21:49:00.358Z,50.92
2023-03-17T21:51:04.102Z,51.04
2023-03-17T21:53:09.264Z,51.19
2023-03-17T21:55:12.333Z,50.72
2023-03-17T21:57:19.490Z,50.88
2023-03-17T21:59:22.708Z,50.99
2023-03-17T22:01:27.496Z,51.33
2023-03-17T22:03:32.197Z,51.66
2023-03-17T22:05:37.062Z,51.65
2023-03-17T22:07:41.811Z,51.82
2023-03-17T22:09:46.023Z,51.87
2023-03-17T22:11:50.981Z,52.12
2023-03-17T22:13:53.804Z,52.19
2023-03-17T22:15:59.434Z,52.22
2023-03-17T22:18:02.780Z,51.94
2023-03-17T22:20:08.039Z,52.00
2023-03-17T22:22:11.318Z,52.27
2023-03-17T22:24:14.217Z,52.33
2023-03-17T22:26:19.394Z,52.38
2023-03-17T22:28:23.063Z,52.62
2023-03-17T22:30:25.949Z,52.84
2023-03-17T22:32:30.049Z,52.92
2023-03-17T22:34:33.470Z,52.95
2023-03-17T22:36:37.911Z,52.82
2023-03-17T22:38:41.855Z,52.64
2023-03-17T22:40:44.573Z,52.50
2023-03-17T22:42:47.550Z,52.89
2023-03-17T22:44:50.876Z,53.01
2023-03-17T22:46:53.916Z,53.00
2023-03-17T22:48:56.902Z,53.34
2023-03-17T22:51:02.199Z,53.30
2023-03-17T22:53:06.876Z,53.36
2023-03-17T22:55:10.794Z,53.35
2023-03-17T22:57:13.459Z,53.09
2023-03-17T22:59:16.193Z,53.40
2023-03-17T23:01:20.592Z,53.51
2023-03-17T23:03:25.107Z,53.64
2023-03-17T23:05:29.248Z,53.75
2023-03-17T23:07:47.898Z,53.80
2023-03-17T23:09:54.237Z,53.90
2023-03-17T23:11:59.891Z,53.89
2023-03-17T23:14:04.512Z,53.75
2023-03-17T23:16:08.427Z,53.80
2023-03-17T23:18:11.254Z,53.71
2023-03-17T23:20:15.140Z,53.61
2023-03-17T23:22:19.041Z,53.74
2023-03-17T23:24:24.793Z,53.54
2023-03-17T23:26:29.733Z,53.72
2023-03-17T23:28:33.483Z,53.68
2023-03-17T23:30:37.640Z,53.55
2023-03-17T23:32:41.623Z,53.78
2023-03-17T23:34:45.047Z,53.70
2023-03-17T23:36:48.287Z,53.88
2023-03-17T23:38:52.334Z,53.71
2023-03-17T23:40:57.000Z,53.91
2023-03-17T23:43:00.293Z,54.03
2023-03-17T23:45:04.165Z,53.98
2023-03-17T23:47:07.528Z,54.05
2023-03-17T23:49:12.114Z,54.01
2023-03-17T23:51:14.914Z,54.10
2023-03-17T23:53:17.986Z,54.19
2023-03-17T23:55:21.008Z,54.18
2023-03-17T23:57:24.426Z,54.07
2023-03-17T23:59:29.320Z,54.24
